Time;durP1;ratioP1;P1;durP2;ratioP2;P2;SDS_P1;SDS_P2;PMS_P1;PMS_P2;Temp;Humidity;BMP_temperature;BMP_pressure;BME280_temperature;BME280_humidity;BME280_pressure;Samples;Min_cycle;Max_cycle;Signal;HPM_P1;HPM_P2
2022/01/31 00:00:21;;;;;;;20.87;10.20;;;5.90;99.90;;;;;;5007371;28;20250;-80
2022/01/31 00:02:47;;;;;;;22.53;13.07;;;5.80;99.90;;;;;;4991269;28;20198;-80
2022/01/31 00:05:13;;;;;;;30.10;17.13;;;5.70;99.90;;;;;;4999768;28;20202;-80
2022/01/31 00:07:39;;;;;;;33.50;20.33;;;5.70;99.90;;;;;;4991586;28;20289;-79
2022/01/31 00:10:09;;;;;;;29.03;25.17;;;5.60;99.90;;;;;;4986713;28;20211;-80
2022/01/31 00:12:49;;;;;;;76.20;70.60;;;5.60;99.90;;;;;;4992875;28;20577;-80
2022/01/31 00:15:15;;;;;;;136.53;128.10;;;5.50;99.90;;;;;;4994110;28;20188;-79
2022/01/31 00:17:41;;;;;;;147.83;139.00;;;5.50;99.90;;;;;;4987061;28;20192;-78
2022/01/31 00:20:07;;;;;;;184.93;173.57;;;5.40;99.90;;;;;;5009661;28;20218;-80
2022/01/31 00:22:32;;;;;;;193.60;183.20;;;5.40;99.90;;;;;;5006682;28;20196;-80
2022/01/31 00:24:58;;;;;;;208.60;196.93;;;5.40;99.90;;;;;;5006850;28;20281;-80
2022/01/31 00:27:24;;;;;;;216.87;205.07;;;5.30;99.90;;;;;;4984642;28;20434;-79
2022/01/31 00:29:49;;;;;;;224.07;211.10;;;5.30;99.90;;;;;;4986723;28;20213;-80
2022/01/31 00:32:15;;;;;;;227.00;214.63;;;5.40;99.90;;;;;;4989785;28;20626;-79
2022/01/31 00:34:41;;;;;;;236.80;223.43;;;5.40;99.90;;;;;;5006847;28;20239;-80
2022/01/31 00:37:06;;;;;;;252.37;238.90;;;5.30;99.90;;;;;;5007626;28;20209;-79
2022/01/31 00:39:35;;;;;;;271.77;255.10;;;5.30;99.90;;;;;;5006917;28;20250;-77
2022/01/31 00:42:02;;;;;;;279.27;264.07;;;5.30;99.90;;;;;;4992859;28;20694;-80
2022/01/31 00:44:38;;;;;;;288.60;271.67;;;5.30;99.90;;;;;;5006530;28;20191;-80
2022/01/31 00:47:15;;;;;;;300.47;282.97;;;5.30;99.90;;;;;;5008122;28;20282;-81
2022/01/31 00:49:48;;;;;;;303.37;284.93;;;5.30;99.90;;;;;;5009297;28;20207;-79
2022/01/31 00:52:14;;;;;;;303.53;286.03;;;5.20;99.90;;;;;;5000591;28;20246;-80
2022/01/31 00:54:40;;;;;;;310.40;291.13;;;5.30;99.90;;;;;;5007617;28;21160;-79
2022/01/31 00:57:05;;;;;;;314.93;295.63;;;5.20;99.90;;;;;;4988752;28;20227;-79
2022/01/31 00:59:31;;;;;;;315.87;296.30;;;5.30;99.90;;;;;;5012423;28;20208;-79
2022/01/31 01:01:57;;;;;;;318.47;298.60;;;5.30;99.90;;;;;;4994877;28;20202;-79
2022/01/31 01:04:23;;;;;;;320.87;300.73;;;5.30;99.90;;;;;;5010791;28;20192;-80
2022/01/31 01:06:48;;;;;;;319.80;299.63;;;5.30;99.90;;;;;;5008962;28;20254;-79
2022/01/31 01:09:14;;;;;;;322.90;302.17;;;5.30;99.90;;;;;;4995470;28;20195;-80
2022/01/31 01:11:40;;;;;;;322.23;301.20;;;5.30;99.90;;;;;;4989350;28;20200;-78
2022/01/31 01:14:07;;;;;;;322.50;301.93;;;5.30;99.90;;;;;;4978817;28;20596;-80
2022/01/31 01:16:33;;;;;;;326.87;305.13;;;5.40;99.90;;;;;;4993718;28;20202;-81
2022/01/31 01:18:59;;;;;;;329.83;307.87;;;5.40;99.90;;;;;;4992746;28;20189;-80
2022/01/31 01:21:25;;;;;;;328.37;306.93;;;5.40;99.90;;;;;;4988958;28;20199;-79
2022/01/31 01:23:50;;;;;;;329.17;307.20;;;5.40;99.90;;;;;;5009847;28;20201;-81
2022/01/31 01:26:16;;;;;;;324.50;303.10;;;5.40;99.90;;;;;;4993605;28;20253;-80
2022/01/31 01:28:44;;;;;;;327.37;305.97;;;5.50;99.90;;;;;;5009414;28;20246;-80
2022/01/31 01:31:11;;;;;;;329.93;308.03;;;5.50;99.90;;;;;;4985939;28;20718;-80
2022/01/31 01:33:40;;;;;;;330.87;308.37;;;5.50;99.90;;;;;;5007056;28;20669;-79
2022/01/31 01:36:07;;;;;;;331.30;309.37;;;5.60;99.90;;;;;;4993164;28;20813;-80
2022/01/31 01:38:33;;;;;;;327.17;305.47;;;5.70;99.90;;;;;;4992705;28;20188;-79
2022/01/31 01:40:59;;;;;;;338.63;315.57;;;5.70;99.90;;;;;;4991251;28;20658;-80
2022/01/31 01:43:26;;;;;;;344.53;320.27;;;5.80;99.90;;;;;;4967770;28;20215;-79
2022/01/31 01:45:54;;;;;;;348.17;323.67;;;5.90;99.90;;;;;;5008028;28;20287;-80
2022/01/31 01:48:20;;;;;;;349.40;324.83;;;5.90;99.90;;;;;;5008334;28;20195;-79
2022/01/31 01:50:47;;;;;;;354.73;328.33;;;6.00;99.90;;;;;;5008818;28;20267;-78
2022/01/31 01:53:13;;;;;;;355.20;327.97;;;6.10;99.90;;;;;;5010197;28;20191;-80
2022/01/31 01:55:40;;;;;;;360.00;333.30;;;6.20;99.90;;;;;;5007962;28;20199;-80
2022/01/31 01:58:13;;;;;;;361.73;334.67;;;6.30;99.90;;;;;;4990953;28;20226;-79
2022/01/31 02:00:58;;;;;;;361.97;334.63;;;6.40;99.90;;;;;;5010259;28;20508;-78
2022/01/31 02:03:26;;;;;;;363.03;336.57;;;6.40;99.90;;;;;;4993405;28;20705;-79
2022/01/31 02:05:52;;;;;;;363.27;336.77;;;6.50;99.90;;;;;;5008337;28;20188;-79
2022/01/31 02:08:19;;;;;;;358.77;333.17;;;6.60;99.90;;;;;;4981489;28;20274;-79
2022/01/31 02:10:45;;;;;;;360.33;334.03;;;6.60;99.90;;;;;;5008334;28;20302;-79
2022/01/31 02:13:12;;;;;;;361.17;335.50;;;6.70;99.90;;;;;;5006359;28;20564;-78
2022/01/31 02:15:39;;;;;;;354.27;329.97;;;6.70;99.90;;;;;;5007139;28;20644;-79
2022/01/31 02:18:06;;;;;;;349.63;326.23;;;6.80;99.90;;;;;;5005084;28;20290;-78
2022/01/31 02:20:40;;;;;;;341.23;319.73;;;6.80;99.90;;;;;;4984847;28;20257;-79
2022/01/31 02:23:11;;;;;;;338.37;317.20;;;6.90;99.90;;;;;;5006424;28;20183;-79
2022/01/31 02:25:54;;;;;;;334.20;313.67;;;6.90;99.90;;;;;;5007757;28;20727;-78
2022/01/31 02:28:22;;;;;;;327.57;307.97;;;6.90;99.90;;;;;;5007054;28;20208;-79
2022/01/31 02:30:48;;;;;;;318.93;300.23;;;7.00;99.90;;;;;;4984983;28;20212;-79
2022/01/31 02:33:14;;;;;;;284.33;268.47;;;7.00;99.90;;;;;;4971081;28;20550;-78
2022/01/31 02:35:41;;;;;;;229.50;216.00;;;7.00;99.90;;;;;;5008015;28;20315;-78
2022/01/31 02:38:06;;;;;;;219.80;207.07;;;7.00;99.90;;;;;;4990786;28;20195;-79
2022/01/31 02:40:32;;;;;;;212.00;200.80;;;7.00;99.90;;;;;;4990292;28;20241;-79
2022/01/31 02:42:58;;;;;;;199.23;187.93;;;7.00;99.90;;;;;;4999626;28;20880;-78
2022/01/31 02:45:23;;;;;;;182.93;172.83;;;7.00;99.90;;;;;;4992940;28;20188;-78
2022/01/31 02:47:55;;;;;;;156.47;147.80;;;7.00;99.90;;;;;;5006917;28;20215;-79
2022/01/31 02:50:21;;;;;;;146.43;138.40;;;7.00;99.90;;;;;;4990558;28;20217;-78
2022/01/31 02:52:56;;;;;;;145.77;137.37;;;7.00;99.90;;;;;;4985812;28;20298;-78
2022/01/31 02:55:23;;;;;;;136.13;128.10;;;6.90;99.90;;;;;;4985474;28;20225;-79
2022/01/31 02:57:50;;;;;;;130.73;123.53;;;6.90;99.90;;;;;;5006772;28;20259;-78
2022/01/31 03:00:16;;;;;;;126.70;119.60;;;6.90;99.90;;;;;;5003709;28;20187;-79
2022/01/31 03:02:41;;;;;;;114.93;108.90;;;6.90;99.90;;;;;;5007853;28;20799;-79
2022/01/31 03:05:07;;;;;;;105.40;99.33;;;6.90;99.90;;;;;;4989800;28;20211;-79
2022/01/31 03:07:34;;;;;;;96.93;91.30;;;6.90;99.90;;;;;;5006245;28;20191;-78
2022/01/31 03:10:01;;;;;;;93.17;87.97;;;6.90;99.90;;;;;;5007600;28;20219;-78
2022/01/31 03:12:28;;;;;;;71.87;66.97;;;6.90;99.90;;;;;;4989266;28;20219;-78
2022/01/31 03:14:53;;;;;;;61.07;56.63;;;6.90;99.90;;;;;;5008238;28;20199;-80
2022/01/31 03:17:19;;;;;;;49.97;46.27;;;6.90;99.90;;;;;;4991619;28;20567;-79
2022/01/31 03:19:52;;;;;;;43.67;39.93;;;6.90;99.90;;;;;;4989716;28;20269;-79
2022/01/31 03:22:19;;;;;;;40.60;37.20;;;6.90;99.90;;;;;;4977066;28;20280;-79
2022/01/31 03:24:45;;;;;;;36.83;34.47;;;6.80;99.90;;;;;;4991383;28;20183;-79
2022/01/31 03:27:11;;;;;;;33.67;31.17;;;6.80;99.90;;;;;;4992157;28;20203;-78
2022/01/31 03:29:36;;;;;;;32.27;29.47;;;6.80;99.90;;;;;;5003541;28;20264;-78
2022/01/31 03:32:02;;;;;;;28.50;25.77;;;6.80;99.90;;;;;;4989094;28;20788;-78
2022/01/31 03:34:28;;;;;;;26.30;23.23;;;6.80;99.90;;;;;;4992416;28;20274;-78
2022/01/31 03:36:54;;;;;;;24.33;22.10;;;6.80;99.90;;;;;;5009658;28;20226;-77
2022/01/31 03:39:19;;;;;;;24.07;21.20;;;6.80;99.90;;;;;;5007988;28;20298;-79
2022/01/31 03:41:45;;;;;;;24.23;17.10;;;6.70;99.90;;;;;;4991016;28;21015;-76
2022/01/31 03:44:10;;;;;;;19.53;17.30;;;6.70;99.90;;;;;;4992829;28;20196;-78
2022/01/31 03:46:38;;;;;;;22.00;16.17;;;6.80;99.90;;;;;;5007836;28;20546;-78
2022/01/31 03:49:04;;;;;;;26.93;15.87;;;6.70;99.90;;;;;;4975153;28;20202;-78
2022/01/31 03:51:30;;;;;;;18.50;15.67;;;6.70;99.90;;;;;;5006729;28;20674;-79
2022/01/31 03:53:55;;;;;;;22.80;16.07;;;6.70;99.90;;;;;;4991931;28;20280;-78
2022/01/31 03:56:21;;;;;;;18.13;13.47;;;6.70;99.90;;;;;;5008312;28;20230;-78
2022/01/31 03:58:47;;;;;;;17.73;13.53;;;6.70;99.90;;;;;;5008420;28;20216;-76
2022/01/31 04:01:12;;;;;;;14.33;12.60;;;6.60;99.90;;;;;;4994972;28;20274;-78
2022/01/31 04:03:38;;;;;;;23.57;11.93;;;6.60;99.90;;;;;;5008438;28;20195;-78
2022/01/31 04:06:04;;;;;;;19.03;12.00;;;6.60;99.90;;;;;;5011868;28;20203;-79
2022/01/31 04:08:30;;;;;;;17.90;11.30;;;6.70;99.90;;;;;;5009551;28;20253;-79
2022/01/31 04:10:55;;;;;;;19.87;10.10;;;6.80;99.90;;;;;;5008313;28;20227;-78
2022/01/31 04:13:21;;;;;;;12.93;10.33;;;6.80;99.90;;;;;;4985674;28;20215;-78
2022/01/31 04:15:47;;;;;;;14.53;8.23;;;6.90;99.90;;;;;;4972020;28;20199;-78
2022/01/31 04:18:13;;;;;;;20.27;8.90;;;7.00;99.90;;;;;;4987200;28;20199;-78
2022/01/31 04:20:39;;;;;;;10.37;7.10;;;7.00;99.90;;;;;;5009738;28;20211;-79
2022/01/31 04:23:14;;;;;;;15.00;7.23;;;7.00;99.90;;;;;;5008328;28;20210;-77
2022/01/31 04:25:51;;;;;;;10.37;6.70;;;7.10;99.90;;;;;;5007808;28;20792;-77
2022/01/31 04:28:31;;;;;;;12.33;6.97;;;7.10;99.90;;;;;;5006753;28;20223;-77
2022/01/31 04:33:37;;;;;;;9.80;4.37;;;7.10;99.90;;;;;;5011641;28;20274;-78
2022/01/31 04:36:06;;;;;;;11.43;4.93;;;7.20;99.90;;;;;;5010782;28;20282;-78
2022/01/31 04:38:32;;;;;;;18.37;5.57;;;7.20;99.90;;;;;;5013773;28;20294;-78
2022/01/31 04:40:59;;;;;;;11.57;4.70;;;7.20;99.90;;;;;;5011981;28;20195;-78
2022/01/31 04:43:24;;;;;;;11.60;4.13;;;7.20;99.90;;;;;;5012985;28;20346;-77
2022/01/31 04:45:50;;;;;;;18.37;5.03;;;7.20;99.90;;;;;;4988164;28;20286;-76
2022/01/31 04:48:18;;;;;;;16.77;5.10;;;7.30;99.90;;;;;;4995900;28;20195;-79
2022/01/31 04:50:44;;;;;;;13.90;4.33;;;7.30;99.90;;;;;;5012851;28;20648;-79
2022/01/31 04:53:11;;;;;;;17.07;4.27;;;7.30;99.90;;;;;;5028721;28;20191;-77
2022/01/31 04:55:36;;;;;;;19.33;4.80;;;7.30;99.90;;;;;;4995307;28;20741;-78
2022/01/31 04:58:03;;;;;;;21.03;4.07;;;7.30;99.90;;;;;;5013395;28;20310;-79
2022/01/31 05:00:29;;;;;;;19.33;4.87;;;7.30;99.90;;;;;;5013844;28;20283;-78
2022/01/31 05:02:55;;;;;;;18.37;5.23;;;7.20;99.90;;;;;;5010240;28;20263;-77
2022/01/31 05:05:20;;;;;;;13.87;5.57;;;7.20;99.90;;;;;;5000195;28;20253;-77
2022/01/31 05:07:46;;;;;;;11.93;5.87;;;7.20;99.90;;;;;;4995753;28;20199;-78
2022/01/31 05:10:12;;;;;;;16.57;8.80;;;7.10;99.90;;;;;;4995201;28;20304;-78
2022/01/31 05:12:38;;;;;;;19.37;7.90;;;7.10;99.90;;;;;;4993420;28;20204;-78
2022/01/31 05:15:04;;;;;;;23.13;7.47;;;7.10;99.90;;;;;;5010679;28;20457;-79
2022/01/31 05:17:30;;;;;;;16.97;7.43;;;7.10;99.90;;;;;;4994255;28;20187;-79
2022/01/31 05:19:56;;;;;;;20.43;6.73;;;7.10;99.90;;;;;;5011975;28;20830;-79
2022/01/31 05:22:21;;;;;;;16.13;7.33;;;7.10;99.90;;;;;;5010823;28;20544;-77
2022/01/31 05:24:47;;;;;;;19.17;7.00;;;7.10;99.90;;;;;;4995169;28;20196;-79
2022/01/31 05:27:14;;;;;;;14.90;6.40;;;7.10;99.90;;;;;;4974801;28;20299;-79
2022/01/31 05:29:39;;;;;;;18.50;7.00;;;7.10;99.90;;;;;;4993296;28;20215;-76
2022/01/31 05:32:05;;;;;;;27.63;7.20;;;7.10;99.90;;;;;;5007195;28;20194;-79
2022/01/31 05:34:31;;;;;;;22.40;11.60;;;7.10;99.90;;;;;;5009842;28;20222;-77
2022/01/31 05:36:57;;;;;;;27.13;12.97;;;7.20;99.90;;;;;;4973102;28;20207;-78
2022/01/31 05:39:24;;;;;;;21.40;12.83;;;7.10;99.90;;;;;;5010879;28;20321;-78
2022/01/31 05:41:54;;;;;;;27.70;25.70;;;7.10;99.90;;;;;;5012231;28;20218;-79
2022/01/31 05:44:21;;;;;;;13.90;10.10;;;7.10;99.90;;;;;;5011791;28;20665;-79
2022/01/31 05:46:47;;;;;;;16.40;10.57;;;7.00;99.90;;;;;;5011444;28;20657;-79
2022/01/31 05:49:13;;;;;;;22.00;12.83;;;7.00;99.90;;;;;;5009188;28;20242;-78
2022/01/31 05:51:52;;;;;;;25.23;11.17;;;7.00;99.90;;;;;;4994983;28;20207;-78
2022/01/31 05:54:17;;;;;;;10.87;9.77;;;7.00;99.90;;;;;;5011837;28;20222;-78
2022/01/31 05:56:43;;;;;;;23.37;12.37;;;7.00;99.90;;;;;;4993698;28;20274;-78
2022/01/31 05:59:09;;;;;;;24.23;12.80;;;7.00;99.90;;;;;;4989194;28;20211;-78
2022/01/31 06:01:38;;;;;;;24.37;17.00;;;7.00;99.90;;;;;;4974268;28;20245;-78
2022/01/31 06:04:07;;;;;;;31.10;27.93;;;7.00;99.90;;;;;;5009032;28;20191;-78
2022/01/31 06:06:33;;;;;;;60.77;55.97;;;6.90;99.90;;;;;;4995081;28;20218;-78
2022/01/31 06:08:59;;;;;;;89.43;83.90;;;6.90;99.90;;;;;;4992592;28;20196;-77
2022/01/31 06:11:27;;;;;;;67.10;62.13;;;6.90;99.90;;;;;;4987423;28;20670;-79
2022/01/31 06:13:55;;;;;;;56.30;51.47;;;6.90;99.90;;;;;;4986598;28;20192;-78
2022/01/31 06:16:21;;;;;;;72.40;65.83;;;6.90;99.90;;;;;;5010790;28;20803;-77
2022/01/31 06:18:47;;;;;;;60.80;55.47;;;6.90;99.90;;;;;;5010765;28;20191;-77
2022/01/31 06:21:13;;;;;;;56.37;50.67;;;6.90;99.90;;;;;;5008942;28;20275;-77
2022/01/31 06:23:39;;;;;;;36.13;32.70;;;6.90;99.90;;;;;;4992964;28;20192;-78
2022/01/31 06:26:05;;;;;;;80.60;75.47;;;6.90;99.90;;;;;;4993022;28;20226;-79
2022/01/31 06:28:31;;;;;;;31.30;28.87;;;6.80;99.90;;;;;;5010848;28;20211;-78
2022/01/31 06:30:57;;;;;;;35.10;28.30;;;6.80;99.90;;;;;;4994872;28;20215;-79
2022/01/31 06:33:23;;;;;;;29.33;23.87;;;6.90;99.90;;;;;;5010505;28;20195;-79
2022/01/31 06:35:48;;;;;;;25.50;19.33;;;6.90;99.90;;;;;;4994049;28;20613;-79
2022/01/31 06:38:14;;;;;;;28.53;16.60;;;6.90;99.90;;;;;;4993851;28;20184;-81
2022/01/31 06:40:40;;;;;;;24.27;15.10;;;7.00;99.90;;;;;;5011850;28;20203;-79
2022/01/31 06:43:06;;;;;;;30.20;14.63;;;7.00;99.90;;;;;;4987620;28;20237;-79
2022/01/31 06:45:32;;;;;;;23.13;10.33;;;7.10;99.90;;;;;;4975727;28;20303;-79
2022/01/31 06:47:57;;;;;;;21.87;9.50;;;7.10;99.90;;;;;;4989255;28;20926;-77
2022/01/31 06:50:23;;;;;;;19.93;9.27;;;7.20;99.90;;;;;;4993930;28;20215;-79
2022/01/31 06:52:54;;;;;;;13.70;8.80;;;7.20;99.90;;;;;;4990204;28;20183;-77
2022/01/31 06:55:21;;;;;;;24.63;7.93;;;7.30;99.90;;;;;;5007563;28;20180;-78
2022/01/31 06:57:49;;;;;;;22.53;8.07;;;7.30;99.90;;;;;;5004621;28;20224;-78
2022/01/31 07:00:17;;;;;;;25.70;8.40;;;7.30;99.90;;;;;;5004764;28;20195;-78
2022/01/31 07:02:45;;;;;;;33.53;10.73;;;7.30;99.90;;;;;;5009224;28;20180;-78
2022/01/31 07:05:13;;;;;;;24.33;9.53;;;7.30;99.90;;;;;;5009282;28;20660;-78
2022/01/31 07:07:39;;;;;;;22.97;10.20;;;7.20;99.90;;;;;;5008834;28;20721;-78
2022/01/31 07:10:05;;;;;;;23.20;11.10;;;7.10;99.90;;;;;;5008725;28;20568;-78
2022/01/31 07:12:34;;;;;;;19.57;11.00;;;7.10;99.90;;;;;;5006311;28;20511;-77
2022/01/31 07:15:01;;;;;;;25.87;12.03;;;7.00;99.90;;;;;;5006949;28;20682;-78
2022/01/31 07:17:27;;;;;;;33.17;13.33;;;7.00;99.90;;;;;;4991744;28;20219;-77
2022/01/31 07:19:54;;;;;;;24.20;15.37;;;7.00;99.90;;;;;;5009367;28;20273;-77
2022/01/31 07:22:22;;;;;;;25.80;16.57;;;7.00;99.90;;;;;;4993749;28;20191;-77
2022/01/31 07:24:50;;;;;;;33.13;16.57;;;7.00;99.90;;;;;;5008447;28;20649;-77
2022/01/31 07:27:15;;;;;;;30.37;16.63;;;7.00;99.90;;;;;;4992841;28;20241;-79
2022/01/31 07:29:41;;;;;;;26.90;18.00;;;6.90;99.90;;;;;;5007452;28;20223;-78
2022/01/31 07:32:09;;;;;;;32.73;19.13;;;6.90;99.90;;;;;;4989171;28;20207;-79
2022/01/31 07:34:37;;;;;;;32.63;18.30;;;6.90;99.90;;;;;;5008886;28;20191;-79
2022/01/31 07:37:03;;;;;;;32.83;18.00;;;6.90;99.90;;;;;;5010405;28;20195;-77
2022/01/31 07:39:28;;;;;;;18.73;16.70;;;7.00;99.90;;;;;;5009776;28;20257;-78
2022/01/31 07:41:54;;;;;;;34.47;17.37;;;7.00;99.90;;;;;;5000994;28;20219;-77
2022/01/31 07:44:20;;;;;;;36.83;17.57;;;7.00;99.90;;;;;;5007799;28;20179;-78
2022/01/31 07:46:48;;;;;;;39.23;15.13;;;7.00;99.90;;;;;;4971961;28;20202;-78
2022/01/31 07:49:14;;;;;;;31.80;13.60;;;7.10;99.90;;;;;;4992979;28;20198;-78
2022/01/31 07:51:41;;;;;;;29.70;11.57;;;7.20;99.90;;;;;;4992186;28;20570;-78
2022/01/31 07:54:08;;;;;;;30.87;12.40;;;7.20;99.90;;;;;;5007088;28;20649;-79
2022/01/31 07:56:34;;;;;;;26.67;11.43;;;7.20;99.90;;;;;;5003944;28;20294;-78
2022/01/31 07:59:00;;;;;;;29.47;10.03;;;7.20;99.90;;;;;;4991691;28;20207;-78
2022/01/31 08:01:28;;;;;;;26.10;10.37;;;7.30;99.90;;;;;;4983548;28;20191;-78
2022/01/31 08:03:54;;;;;;;29.53;10.63;;;7.30;99.90;;;;;;5008687;28;20577;-78
2022/01/31 08:06:19;;;;;;;30.07;10.30;;;7.30;99.90;;;;;;5006194;28;20203;-79
2022/01/31 08:08:45;;;;;;;25.23;9.03;;;7.30;99.90;;;;;;4987294;28;20954;-79
2022/01/31 08:11:11;;;;;;;20.77;8.83;;;7.40;99.90;;;;;;4968886;28;20289;-78
2022/01/31 08:13:38;;;;;;;30.87;9.47;;;7.40;99.90;;;;;;4991395;28;20207;-79
2022/01/31 08:18:38;;;;;;;35.13;10.13;;;7.40;99.90;;;;;;5008008;28;20219;-79
2022/01/31 08:21:05;;;;;;;20.17;10.43;;;7.40;99.90;;;;;;5006823;28;20196;-79
2022/01/31 08:23:31;;;;;;;18.77;12.43;;;7.40;99.90;;;;;;5010266;28;20278;-78
2022/01/31 08:26:00;;;;;;;30.63;17.53;;;7.30;99.90;;;;;;4990523;28;20718;-79
2022/01/31 08:28:39;;;;;;;35.57;21.03;;;7.20;99.90;;;;;;5006024;28;20241;-78
2022/01/31 08:31:18;;;;;;;27.53;23.30;;;7.00;99.90;;;;;;4991946;28;20240;-78
2022/01/31 08:36:11;;;;;;;41.60;27.70;;;6.80;99.90;;;;;;4991189;28;20262;-79
2022/01/31 08:38:39;;;;;;;27.77;24.73;;;6.80;99.90;;;;;;4990402;28;20278;-77
2022/01/31 08:41:07;;;;;;;31.43;27.63;;;6.90;99.90;;;;;;5009311;28;20196;-79
2022/01/31 08:43:34;;;;;;;45.17;25.03;;;7.00;99.90;;;;;;5004472;28;20577;-78
2022/01/31 08:46:00;;;;;;;35.30;23.10;;;7.00;99.90;;;;;;4991150;28;20268;-77
2022/01/31 08:48:27;;;;;;;41.47;23.83;;;7.00;99.90;;;;;;4989887;28;20278;-77
2022/01/31 08:50:54;;;;;;;29.93;20.13;;;7.10;99.90;;;;;;5003715;28;20306;-78
2022/01/31 08:53:21;;;;;;;29.73;18.23;;;7.10;99.90;;;;;;5007133;28;20685;-78
2022/01/31 08:56:00;;;;;;;30.30;19.53;;;7.20;99.90;;;;;;5007222;28;20187;-79
2022/01/31 08:58:27;;;;;;;29.63;16.57;;;7.20;99.90;;;;;;5006449;28;20235;-77
2022/01/31 09:01:00;;;;;;;26.67;13.60;;;7.20;99.90;;;;;;5006131;28;20254;-78
2022/01/31 09:06:06;;;;;;;34.30;14.47;;;7.30;99.90;;;;;;5004192;28;20195;-79
2022/01/31 09:08:32;;;;;;;28.13;14.30;;;7.30;99.90;;;;;;5008594;28;20198;-78
2022/01/31 09:10:57;;;;;;;39.80;16.70;;;7.30;99.90;;;;;;4998727;28;20207;-77
2022/01/31 09:13:23;;;;;;;47.97;19.80;;;7.30;99.90;;;;;;5001296;28;20196;-79
2022/01/31 09:15:49;;;;;;;35.87;15.13;;;7.30;99.90;;;;;;4992119;28;20246;-78
2022/01/31 09:18:15;;;;;;;35.83;12.90;;;7.30;99.90;;;;;;5009737;28;20196;-79
2022/01/31 09:20:41;;;;;;;41.23;11.57;;;7.30;99.90;;;;;;4995798;28;20191;-79
2022/01/31 09:23:06;;;;;;;29.53;11.00;;;7.30;99.90;;;;;;5018429;28;20246;-78
2022/01/31 09:25:33;;;;;;;35.40;11.17;;;7.40;99.90;;;;;;5012521;28;20249;-77
2022/01/31 09:28:00;;;;;;;35.87;9.70;;;7.50;99.90;;;;;;5012514;28;20758;-78
2022/01/31 09:30:27;;;;;;;33.50;9.97;;;7.60;99.90;;;;;;5010770;28;20591;-79
2022/01/31 09:32:57;;;;;;;32.67;8.47;;;7.60;99.90;;;;;;5002047;28;20176;-79
2022/01/31 09:35:23;;;;;;;27.17;6.13;;;7.60;99.90;;;;;;5009968;28;20198;-78
2022/01/31 09:37:49;;;;;;;31.33;5.33;;;7.60;99.90;;;;;;5012177;28;20188;-78
2022/01/31 09:40:19;;;;;;;48.47;7.87;;;7.60;99.90;;;;;;5010927;28;20999;-77
2022/01/31 09:48:37;;;;;;;35.60;6.33;;;7.80;99.90;;;;;;5011922;28;20199;-79
2022/01/31 09:51:13;;;;;;;33.77;5.43;;;7.90;99.90;;;;;;4987269;28;20234;-78
2022/01/31 09:53:45;;;;;;;32.60;5.60;;;7.90;99.90;;;;;;5008723;28;20574;-79
2022/01/31 09:56:16;;;;;;;27.03;4.93;;;7.90;99.90;;;;;;5010465;28;20187;-78
2022/01/31 09:58:43;;;;;;;34.30;5.17;;;7.90;99.90;;;;;;5010403;28;20259;-79
2022/01/31 10:01:21;;;;;;;36.40;5.93;;;7.90;99.90;;;;;;4992623;28;20218;-78
2022/01/31 10:03:48;;;;;;;26.97;4.43;;;7.90;99.90;;;;;;5009689;28;20249;-77
2022/01/31 10:06:30;;;;;;;36.27;6.80;;;7.90;99.90;;;;;;5009816;28;20183;-78
2022/01/31 10:09:03;;;;;;;30.90;5.80;;;7.80;99.90;;;;;;5009819;28;20187;-78
2022/01/31 10:11:37;;;;;;;34.53;5.97;;;7.80;99.90;;;;;;5002079;28;20855;-78
2022/01/31 10:17:21;;;;;;;30.50;5.20;;;7.80;99.90;;;;;;5010768;28;20195;-78
2022/01/31 10:19:47;;;;;;;32.87;5.73;;;7.70;99.90;;;;;;5010339;28;20214;-79
2022/01/31 10:22:15;;;;;;;42.67;7.00;;;7.70;99.90;;;;;;4994016;28;20195;-78
2022/01/31 10:24:44;;;;;;;46.97;6.43;;;7.70;99.90;;;;;;4994833;28;20190;-78
2022/01/31 10:27:17;;;;;;;50.00;8.53;;;7.70;99.90;;;;;;5012722;28;20287;-78
2022/01/31 10:29:46;;;;;;;25.77;6.93;;;7.80;99.90;;;;;;5011537;28;20603;-78
2022/01/31 10:32:17;;;;;;;24.73;5.43;;;7.90;99.90;;;;;;4991154;28;20178;-79
2022/01/31 10:34:52;;;;;;;36.73;5.77;;;7.80;99.90;;;;;;4992048;28;20704;-77
2022/01/31 10:37:21;;;;;;;34.77;6.50;;;7.80;99.90;;;;;;5008441;28;20194;-78
2022/01/31 10:53:48;;;;;;;37.90;5.63;;;7.80;99.90;;;;;;5010795;28;20198;-78
2022/01/31 10:56:14;;;;;;;38.73;5.73;;;7.80;99.90;;;;;;5025790;28;20263;-79
2022/01/31 10:58:57;;;;;;;30.27;6.93;;;7.80;99.90;;;;;;4992653;28;20595;-78
2022/01/31 11:01:24;;;;;;;31.20;6.63;;;7.80;99.90;;;;;;5017677;28;20662;-78
2022/01/31 11:03:50;;;;;;;37.87;6.20;;;7.80;99.90;;;;;;5007651;28;20238;-77
2022/01/31 11:06:19;;;;;;;30.23;5.80;;;7.80;99.90;;;;;;5010992;28;20211;-78
2022/01/31 11:08:45;;;;;;;35.17;6.23;;;7.80;99.90;;;;;;4995041;28;20605;-77
2022/01/31 11:11:11;;;;;;;38.50;6.37;;;7.80;99.90;;;;;;5008321;28;20294;-79
2022/01/31 11:13:38;;;;;;;34.47;6.23;;;7.80;99.90;;;;;;5006132;28;20283;-78
2022/01/31 11:16:06;;;;;;;33.23;6.57;;;7.80;99.90;;;;;;5007549;28;20179;-78
2022/01/31 11:18:33;;;;;;;36.50;6.67;;;7.80;99.90;;;;;;4984397;28;20183;-77
2022/01/31 11:21:04;;;;;;;25.40;5.97;;;7.70;99.90;;;;;;5010544;28;20736;-79
2022/01/31 11:23:37;;;;;;;34.00;7.17;;;7.60;99.90;;;;;;5008217;28;20229;-77
2022/01/31 11:26:04;;;;;;;48.50;7.83;;;7.50;99.90;;;;;;5009850;28;20198;-78
2022/01/31 11:28:33;;;;;;;41.03;9.40;;;7.50;99.90;;;;;;4998461;28;20208;-78
2022/01/31 11:31:01;;;;;;;42.70;25.70;;;7.40;99.90;;;;;;5009995;28;20884;-77
2022/01/31 11:33:28;;;;;;;42.00;24.57;;;7.30;99.90;;;;;;5009199;28;20241;-77
2022/01/31 11:35:54;;;;;;;50.47;45.03;;;7.10;99.90;;;;;;5001802;28;20796;-79
2022/01/31 11:38:21;;;;;;;61.33;56.27;;;6.90;99.90;;;;;;4991621;28;20188;-78
2022/01/31 11:40:48;;;;;;;74.80;67.77;;;6.70;99.90;;;;;;5007073;28;20278;-77
2022/01/31 11:43:16;;;;;;;101.37;93.00;;;6.60;99.90;;;;;;4991180;28;20381;-79
2022/01/31 11:45:44;;;;;;;116.07;106.63;;;6.50;99.90;;;;;;5006568;28;20571;-78
2022/01/31 11:48:18;;;;;;;141.70;131.87;;;6.30;99.90;;;;;;5005909;28;20286;-78
2022/01/31 11:50:47;;;;;;;155.67;145.77;;;6.30;99.90;;;;;;5009172;28;20246;-79
2022/01/31 11:53:13;;;;;;;177.67;165.90;;;6.30;99.90;;;;;;5006524;28;20263;-78
2022/01/31 11:55:39;;;;;;;186.20;173.70;;;6.20;99.90;;;;;;5006619;28;20183;-78
2022/01/31 11:58:15;;;;;;;197.70;185.03;;;6.20;99.90;;;;;;5005357;28;20235;-79
2022/01/31 12:00:41;;;;;;;206.37;192.90;;;6.10;99.90;;;;;;5008682;28;20186;-77
2022/01/31 12:03:09;;;;;;;203.83;191.60;;;6.10;99.90;;;;;;4971741;28;20688;-79
2022/01/31 12:05:36;;;;;;;214.87;202.17;;;6.10;99.90;;;;;;5024233;28;20203;-79
2022/01/31 12:08:12;;;;;;;220.27;205.77;;;6.20;99.90;;;;;;4992061;28;20648;-78
2022/01/31 12:10:43;;;;;;;223.30;208.83;;;6.20;99.90;;;;;;5008495;28;20207;-78
2022/01/31 12:13:40;;;;;;;225.30;209.87;;;6.30;99.90;;;;;;5007803;28;20530;-78
2022/01/31 12:23:56;;;;;;;193.23;180.57;;;6.40;99.90;;;;;;5009584;28;20270;-78
2022/01/31 12:26:31;;;;;;;174.03;160.80;;;6.50;99.90;;;;;;5023138;28;20208;-79
2022/01/31 12:29:05;;;;;;;173.73;160.57;;;6.50;99.90;;;;;;5000195;28;20660;-79
2022/01/31 12:31:38;;;;;;;174.20;160.60;;;6.60;99.90;;;;;;5009477;28;20638;-78
2022/01/31 12:34:32;;;;;;;150.33;138.57;;;6.60;99.90;;;;;;5000148;28;20215;-77
2022/01/31 12:37:01;;;;;;;135.63;125.77;;;6.70;99.90;;;;;;5003963;28;20191;-79
2022/01/31 12:39:30;;;;;;;134.40;124.47;;;6.70;99.90;;;;;;5008556;28;20555;-79
2022/01/31 12:42:03;;;;;;;116.67;107.03;;;6.80;99.90;;;;;;5007859;28;20277;-76
2022/01/31 12:44:32;;;;;;;96.57;87.97;;;6.80;99.90;;;;;;5008278;28;20558;-79
2022/01/31 12:47:14;;;;;;;82.80;75.73;;;6.80;99.90;;;;;;5001332;28;20191;-79
2022/01/31 12:49:41;;;;;;;61.67;41.90;;;6.80;99.90;;;;;;5009119;28;20260;-77
2022/01/31 12:52:08;;;;;;;65.27;28.30;;;6.90;99.90;;;;;;5009003;28;20188;-78
2022/01/31 12:54:37;;;;;;;46.47;25.40;;;6.90;99.90;;;;;;4995462;28;20203;-79
2022/01/31 12:57:07;;;;;;;45.10;15.47;;;6.90;99.90;;;;;;5011847;28;20242;-78
2022/01/31 12:59:33;;;;;;;46.27;18.70;;;7.00;99.90;;;;;;5010613;28;20314;-79
2022/01/31 13:02:05;;;;;;;39.10;12.40;;;7.00;99.90;;;;;;4972026;28;20554;-78
2022/01/31 13:04:31;;;;;;;51.20;12.80;;;7.00;99.90;;;;;;5010878;28;20701;-78
2022/01/31 13:06:59;;;;;;;47.50;14.57;;;7.00;99.90;;;;;;4994504;28;20188;-78
2022/01/31 13:09:26;;;;;;;53.53;14.93;;;7.10;99.90;;;;;;4995015;28;20191;-78
2022/01/31 13:12:04;;;;;;;48.80;16.10;;;7.10;99.90;;;;;;5028237;28;20210;-78
2022/01/31 13:14:51;;;;;;;33.53;12.57;;;7.10;99.90;;;;;;5012094;28;20835;-78
2022/01/31 13:17:20;;;;;;;40.27;13.87;;;7.00;99.90;;;;;;5011123;28;20623;-79